Flight Track Log - Related Links

Times and Time Zones

All times are in EST time to prevent confusion due to time zone crossing. See the EJA749 flight status page for this flight to view local times or setup timezone preferences in your user account.

Time Position Orientation Groundspeed Altitude Reporting Facility
EST Latitude Longitude Course Direction KTS MPH feet Rate Location/Type
Mon 01:47:58 PM 26.0747 -80.1414 85° East 238 274 700  Level Miami Center
Mon 01:48:59 PM 26.0806 -80.0719 85° East 256 295 3,400 3,098 Climbing Miami Center
Mon 01:50:00 PM 26.1397 -80.0458 22° Northeast 271 312 7,000 2,700 Climbing Miami Center
Mon 01:50:39 PM 26.1783 -80.0933 312° West 289 333 7,900 1,672 Climbing Miami Center
Mon 01:51:01 PM 26.1944 -80.1169 307° West 287 330 8,700 2,500 Climbing Miami Center
Mon 01:51:39 PM 26.2378 -80.1436 331° Northwest 290 334 10,400 3,306 Climbing Miami Center
Mon 01:52:39 PM 26.3075 -80.2033 322° Northwest 303 349 14,100 2,800 Climbing Miami Center
Mon 01:53:39 PM 26.3875 -80.2658 325° Northwest 331 381 16,000 2,250 Climbing Miami Center
Mon 01:54:39 PM 26.4714 -80.3356 323° Northwest 363 418 18,600 2,450 Climbing Miami Center
Mon 01:55:39 PM 26.5594 -80.4056 325° Northwest 386 444 20,900 2,050 Climbing Miami Center
Mon 01:56:39 PM 26.6625 -80.4575 336° Northwest 391 450 22,700 1,750 Climbing Miami Center
Mon 01:57:39 PM 26.7700 -80.5072 338° Northwest 411 473 24,400 1,750 Climbing Miami Center
Mon 01:58:39 PM 26.8814 -80.5619 336° Northwest 423 487 26,200 1,800 Climbing Miami Center
Mon 01:59:39 PM 26.9908 -80.6119 338° Northwest 423 487 28,000 1,800 Climbing Miami Center
Mon 02:00:39 PM 27.1042 -80.6622 338° Northwest 429 494 29,800 1,750 Climbing Miami Center
Mon 02:01:39 PM 27.2136 -80.7150 337° Northwest 429 494 31,500 1,450 Climbing Miami Center
Mon 02:02:39 PM 27.3250 -80.7656 338° Northwest 429 494 32,700 1,200 Climbing Miami Center
Mon 02:03:39 PM 27.4344 -80.8111 340° North 429 494 33,900 1,150 Climbing Miami Center
Mon 02:04:39 PM 27.5497 -80.8644 338° Northwest 429 494 35,000 550 Climbing Miami Center
Mon 02:05:39 PM 27.6631 -80.9175 337° Northwest 434 499 35,000  Level Miami Center
Mon 02:06:39 PM 27.7764 -80.9708 337° Northwest 439 505 35,000  Level Miami Center
Mon 02:07:39 PM 27.8936 -81.0269 337° Northwest 445 512 35,000  Level Miami Center
Mon 02:08:39 PM 28.0156 -81.0761 340° North 451 519 35,000  Level Miami Center
Mon 02:09:39 PM 28.1247 -81.1178 341° North 451 519 35,000  Level Miami Center
Mon 02:10:39 PM 28.2547 -81.1650 342° North 456 525 35,000  Level Miami Center
Mon 02:11:39 PM 28.3789 -81.2075 343° North 456 525 35,000  Level Miami Center
Mon 02:12:39 PM 28.5003 -81.2547 341° North 456 525 35,000  Level Miami Center
Mon 02:13:39 PM 28.6222 -81.2975 343° North 462 532 35,000  Level Miami Center
Mon 02:14:39 PM 28.7253 -81.3394 340° North 449 517 35,000  Level Miami Center
Mon 02:15:09 PM 28.8003 -81.3667 342° North 447 514 35,000  Level Jacksonville Center
Mon 02:16:09 PM 28.9219 -81.4100 343° North 447 514 35,000  Level Jacksonville Center
Mon 02:17:09 PM 29.0433 -81.4533 343° North 447 514 35,000  Level Jacksonville Center
Mon 02:18:10 PM 29.1628 -81.4967 342° North 447 514 35,000  Level Jacksonville Center
Mon 02:19:09 PM 29.2678 -81.5428 339° North 440 506 35,000 303 Level Jacksonville Center
Mon 02:20:09 PM 29.3911 -81.5744 347° North 446 513 35,600 850 Climbing Jacksonville Center
Mon 02:21:09 PM 29.5167 -81.5919 353° North 446 513 36,700 700 Climbing Jacksonville Center
Mon 02:22:09 PM 29.6400 -81.6117 352° North 452 520 37,000 149 Climbing Jacksonville Center
Mon 02:23:10 PM 29.7656 -81.6292 353° North 452 520 37,000  Level Jacksonville Center
Mon 02:24:09 PM 29.8931 -81.6492 352° North 447 514 37,000  Level Jacksonville Center
Mon 02:25:09 PM 30.0183 -81.6667 353° North 447 514 37,000  Level Jacksonville Center
Mon 02:26:10 PM 30.1439 -81.6844 353° North 447 514 37,000  Level Jacksonville Center
Mon 02:27:10 PM 30.2694 -81.7019 353° North 447 514 37,000  Level Jacksonville Center
Mon 02:28:09 PM 30.4114 -81.7219 353° North 463 533 37,000  Level Jacksonville Center
Mon 02:29:10 PM 30.5369 -81.7422 352° North 458 527 37,000  Level Jacksonville Center
Mon 02:30:09 PM 30.6519 -81.7625 351° North 458 527 37,000  Level Jacksonville Center
Mon 02:31:10 PM 30.7942 -81.7850 352° North 463 533 37,000  Level Jacksonville Center
Mon 02:32:10 PM 30.9194 -81.8053 352° North 463 533 37,000  Level Jacksonville Center
Mon 02:33:10 PM 31.0472 -81.8233 353° North 463 533 37,000  Level Jacksonville Center
Mon 02:34:10 PM 31.1747 -81.8461 351° North 462 532 37,000  Level Jacksonville Center
Mon 02:35:10 PM 31.2981 -81.8617 354° North 450 518 37,000  Level Jacksonville Center
Mon 02:37:32 PM 31.6008 -81.9078 353° North 450 518 37,000  Level Atlanta Center
Mon 02:38:32 PM 31.7264 -81.9269 353° North 450 518 37,000  Level Atlanta Center
Mon 02:39:32 PM 31.8500 -81.9461 352° North 445 512 37,000  Level Atlanta Center
Mon 02:40:32 PM 31.9733 -81.9650 353° North 450 518 37,000  Level Atlanta Center
Mon 02:41:32 PM 32.0989 -81.9819 353° North 443 510 37,000  Level Atlanta Center
Mon 02:42:32 PM 32.2181 -81.9939 355° North 443 510 37,000  Level Atlanta Center
Mon 02:43:32 PM 32.3414 -82.0058 355° North 443 510 37,000  Level Atlanta Center
Mon 02:44:32 PM 32.4647 -82.0225 353° North 443 510 37,000  Level Atlanta Center
Mon 02:45:33 PM 32.5781 -82.0619 344° North 436 502 37,000  Level Atlanta Center
Mon 02:46:32 PM 32.6792 -82.1214 334° Northwest 415 478 37,000  Level Atlanta Center
Mon 02:47:32 PM 32.7783 -82.1786 334° Northwest 420 483 37,000  Level Atlanta Center
Mon 02:48:32 PM 32.8814 -82.2356 335° Northwest 420 483 37,000  Level Atlanta Center
Mon 02:49:32 PM 32.9844 -82.2956 334° Northwest 420 483 37,000  Level Atlanta Center
Mon 02:50:32 PM 33.0856 -82.3528 335° Northwest 407 468 37,000  Level Atlanta Center
Mon 02:51:32 PM 33.1928 -82.4128 335° Northwest 407 468 37,000  Level Atlanta Center
Mon 02:52:32 PM 33.2936 -82.4706 334° Northwest 408 470 37,000  Level Atlanta Center
Mon 02:53:32 PM 33.4114 -82.5356 335° Northwest 413 475 37,000  Level Atlanta Center
Mon 02:54:32 PM 33.5164 -82.5961 334° Northwest 413 475 37,000  Level Atlanta Center
Mon 02:55:32 PM 33.6153 -82.6544 334° Northwest 408 470 37,000  Level Atlanta Center
Mon 02:56:32 PM 33.7097 -82.7103 334° Northwest 413 475 37,000  Level Atlanta Center
Mon 02:57:32 PM 33.8147 -82.7661 336° Northwest 413 475 37,000  Level Atlanta Center
Mon 02:58:32 PM 33.9197 -82.8272 334° Northwest 413 475 37,000  Level Atlanta Center
Mon 02:59:32 PM 34.0225 -82.8883 334° Northwest 404 465 37,000  Level Atlanta Center
Mon 03:00:32 PM 34.1233 -82.9447 335° Northwest 409 471 37,000  Level Atlanta Center
Mon 03:01:32 PM 34.2281 -83.0061 334° Northwest 409 471 37,000  Level Atlanta Center
Mon 03:02:33 PM 34.3308 -83.0678 334° Northwest 404 465 37,000  Level Atlanta Center
Mon 03:03:32 PM 34.4378 -83.1294 335° Northwest 410 472 37,000  Level Atlanta Center
Mon 03:04:32 PM 34.5447 -83.1914 334° Northwest 410 472 37,000  Level Atlanta Center
Mon 03:05:33 PM 34.6558 -83.2586 334° Northwest 405 466 37,000  Level Atlanta Center
Mon 03:06:32 PM 34.7500 -83.3158 333° Northwest 416 479 37,000  Level Atlanta Center
Mon 03:07:32 PM 34.8589 -83.3806 334° Northwest 416 479 37,000  Level Atlanta Center
Mon 03:08:32 PM 34.9636 -83.4406 335° Northwest 416 479 37,000  Level Atlanta Center
Mon 03:09:32 PM 35.0683 -83.5058 333° Northwest 416 479 37,000  Level Atlanta Center
Mon 03:10:32 PM 35.1728 -83.5686 334° Northwest 416 479 37,000  Level Atlanta Center
Mon 03:11:32 PM 35.2753 -83.6317 333° Northwest 411 473 37,000  Level Atlanta Center
Mon 03:12:32 PM 35.3797 -83.6922 335° Northwest 411 473 37,000  Level Atlanta Center
Mon 03:13:32 PM 35.4842 -83.7556 334° Northwest 411 473 37,000  Level Atlanta Center
Mon 03:14:32 PM 35.5992 -83.8267 333° Northwest 411 473 37,000 450 Level Atlanta Center
Mon 03:15:32 PM 35.7036 -83.8903 334° Northwest 417 480 37,900 500 Climbing Atlanta Center
Mon 03:16:32 PM 35.8058 -83.9517 334° Northwest 411 473 38,000 50 Climbing Atlanta Center
Mon 03:17:32 PM 35.9103 -84.0131 335° Northwest 411 473 38,000  Level Atlanta Center
Mon 03:18:32 PM 36.0144 -84.0772 334° Northwest 411 473 38,000  Level Atlanta Center
Mon 03:19:32 PM 36.1167 -84.1442 332° Northwest 411 473 38,000  Level Atlanta Center
Mon 03:20:42 PM 36.2253 -84.2078 335° Northwest 422 486 38,000  Level Indianapolis Center
Mon 03:21:44 PM 36.3286 -84.2722 333° Northwest 418 481 38,000  Level Indianapolis Center
Mon 03:22:46 PM 36.4403 -84.3672 326° Northwest 408 470 38,000  Level Indianapolis Center
Mon 03:23:48 PM 36.5297 -84.4431 326° Northwest 409 471 38,000  Level Indianapolis Center
Mon 03:24:50 PM 36.6267 -84.5264 325° Northwest 406 467 38,000 145 Level Indianapolis Center
Mon 03:25:52 PM 36.7292 -84.5936 332° Northwest 415 478 38,300 484 Climbing Indianapolis Center
Mon 03:26:54 PM 36.8297 -84.6597 332° Northwest 411 473 39,000 339 Climbing Indianapolis Center
Mon 03:27:56 PM 36.9508 -84.7442 331° Northwest 417 480 39,000  Level Indianapolis Center
Mon 03:28:58 PM 37.0522 -84.8042 335° Northwest 422 486 39,000  Level Indianapolis Center
Mon 03:30:00 PM 37.1583 -84.8708 333° Northwest 425 489 39,000  Level Indianapolis Center
Mon 03:31:02 PM 37.2669 -84.9369 334° Northwest 431 496 39,000  Level Indianapolis Center
Mon 03:32:04 PM 37.3742 -85.0028 334° Northwest 429 494 39,000  Level Indianapolis Center
Mon 03:33:06 PM 37.4997 -85.0797 334° Northwest 429 494 39,000  Level Indianapolis Center
Mon 03:34:08 PM 37.6072 -85.1483 333° Northwest 431 496 39,000 -145 Level Indianapolis Center
Mon 03:35:10 PM 37.6942 -85.2436 319° Northwest 417 480 38,700 -919 Descending Indianapolis Center
Mon 03:36:12 PM 37.7819 -85.3381 320° Northwest 415 478 37,100 -1,500 Descending Indianapolis Center
Mon 03:37:14 PM 37.8803 -85.4181 327° Northwest 426 490 35,600 -1,210 Descending Indianapolis Center
Mon 03:38:16 PM 37.9881 -85.4811 335° Northwest 428 493 34,600 -1,258 Descending Indianapolis Center
Mon 03:39:18 PM 38.0964 -85.5464 335° Northwest 431 496 33,000 -1,258 Descending Indianapolis Center
Mon 03:40:20 PM 38.2275 -85.6253 335° Northwest 434 499 32,000 -484 Descending Indianapolis Center
Mon 03:41:22 PM 38.3411 -85.6922 335° Northwest 447 514 32,000  Level Indianapolis Center
Mon 03:42:24 PM 38.4558 -85.7608 335° Northwest 454 522 32,000  Level Indianapolis Center
Mon 03:43:26 PM 38.5697 -85.8297 335° Northwest 454 522 32,000 -145 Level Indianapolis Center
Mon 03:44:28 PM 38.6833 -85.8989 335° Northwest 452 520 31,700 -919 Descending Indianapolis Center
Mon 03:45:30 PM 38.7978 -85.9672 335° Northwest 454 522 30,100 -823 Descending Indianapolis Center
Mon 03:46:32 PM 38.9328 -86.0506 334° Northwest 449 517 30,000 -48 Descending Indianapolis Center
Mon 03:47:34 PM 39.0467 -86.1203 335° Northwest 453 521 30,000  Level Indianapolis Center
Mon 03:48:36 PM 39.1631 -86.1919 334° Northwest 460 529 30,000 -532 Level Indianapolis Center
Mon 03:49:38 PM 39.2775 -86.2614 335° Northwest 456 525 28,900 -1,306 Descending Indianapolis Center
Mon 03:50:40 PM 39.3878 -86.3294 335° Northwest 442 509 27,300 -1,403 Descending Indianapolis Center
Mon 03:51:42 PM 39.4997 -86.4003 334° Northwest 447 514 26,000 -629 Descending Indianapolis Center
Mon 03:52:44 PM 39.6117 -86.4697 334° Northwest 446 513 26,000  Level Indianapolis Center
Mon 03:53:46 PM 39.7489 -86.5564 334° Northwest 452 520 26,000  Level Indianapolis Center
Mon 03:54:48 PM 39.8661 -86.6289 335° Northwest 461 531 26,000  Level Indianapolis Center
Mon 03:55:50 PM 39.9817 -86.7017 334° Northwest 461 531 26,000  Level Indianapolis Center
Mon 03:56:52 PM 40.0983 -86.7750 334° Northwest 464 534 26,000 -589 Level Indianapolis Center
Mon 03:57:42 PM 40.1861 -86.8322 334° Northwest 458 527 24,900 -1,071 Descending Chicago Center
Mon 03:58:44 PM 40.3217 -86.9181 334° Northwest 454 522 24,000 -871 Descending Chicago Center
Mon 03:59:46 PM 40.4447 -86.9700 342° North 471 542 23,100 -1,210 Descending Chicago Center
Mon 04:00:48 PM 40.5714 -87.0033 349° North 467 537 21,500 -1,839 Descending Chicago Center
Mon 04:01:50 PM 40.6861 -87.0347 348° North 435 501 19,300 -2,274 Descending Chicago Center
Mon 04:02:52 PM 40.7831 -87.0622 348° North 369 425 16,800 -2,565 Descending Chicago Center
Mon 04:03:54 PM 40.8881 -87.0919 348° North 332 382 14,000 -2,468 Descending Chicago Center
Mon 04:04:56 PM 40.9797 -87.1169 348° North 333 383 11,700 -1,887 Descending Chicago Center
Mon 04:05:58 PM 41.0700 -87.1461 346° North 337 388 10,100 -774 Descending Chicago Center
Mon 04:07:00 PM 41.1081 -87.2364 299° West 296 341 10,100  Level Chicago Center
Mon 04:08:02 PM 41.1444 -87.3228 299° West 271 312 10,100 -581 Level Chicago Center
Mon 04:09:04 PM 41.1803 -87.4114 298° West 273 314 8,900 -1,403 Descending Chicago Center
Mon 04:10:06 PM 41.2153 -87.4975 298° West 236 272 7,200 -1,306 Descending Chicago Center
Mon 04:11:08 PM 41.2458 -87.5744 298° West 232 267 6,200 -968 Descending Chicago Center
Mon 04:12:10 PM 41.2792 -87.6550 299° West 240 276 5,200 -968 Descending Chicago Center
Mon 04:13:12 PM 41.3128 -87.7389 298° West 250 288 4,200 -581 Descending Chicago Center
Mon 04:14:14 PM 41.3453 -87.8197 298° West 251 289 4,000 -97 Descending Chicago Center
Mon 04:15:16 PM 41.3831 -87.9133 298° West 246 283 4,000  Level Chicago Center
Mon 04:16:18 PM 41.4222 -87.9789 309° West 236 272 4,000  Level Chicago Center
Mon 04:17:20 PM 41.4669 -88.0375 316° Northwest 234 269 4,000  Level Chicago Center
Mon 04:18:22 PM 41.5133 -88.0942 318° Northwest 233 268 4,000  Level Chicago Center
Mon 04:19:24 PM 41.5706 -88.1581 320° Northwest 227 261 4,000  Level Chicago Center
Mon 04:20:26 PM 41.6183 -88.2111 320° Northwest 227 261 4,000  Level Chicago Center
Mon 04:21:28 PM 41.6578 -88.2544 321° Northwest 205 236 4,000  Level Chicago Center
Mon 04:22:31 PM 41.6939 -88.2953 320° Northwest 187 215 4,000  Level Chicago Center
Mon 04:23:33 PM 41.7336 -88.3067 348° North 169 194 4,000 -435 Level Chicago Center
Mon 04:24:35 PM 41.7833 -88.2908 13° North 160 184 3,100 -774 Descending Chicago Center
Mon 04:25:37 PM 41.8194 -88.2786 14° North 146 168 2,400 -726 Descending Chicago Center
Mon 04:26:39 PM 41.8536 -88.2675 14° North 136 157 1,600 -677 Descending Chicago Center
Mon 04:27:41 PM 41.8917 -88.2556 13° North 132 152 1,000 -581 Descending Chicago Center
Mon 04:30:00 PM 42.0593 -87.9893 50° Northeast  Level Estimated
Mon 04:37:00 PM 42.1143 -87.9015 50° Northeast  Level Estimated
Mon 04:38:00 PM 42.1143 -87.9015 143° Southeast  Level Estimated
Mon 04:39:00 PM 42.1143 -87.9015 143° Southeast  Level Estimated
Mon 04:40:00 PM 42.1143 -87.9015 143° Southeast  Level Estimated
Mon 04:41:00 PM 42.1143 -87.9015 143° Southeast  Level Estimated
Mon 04:42:00 PM 42.1143 -87.9015 143° Southeast  Level Estimated
Mon 04:43:00 PM 42.1143 -87.9015 143° Southeast  Level Estimated
Mon 04:44:00 PM 42.1143 -87.9015 143° Southeast  Level Estimated
Mon 04:45:00 PM 42.1143 -87.9015 143° Southeast  Level Estimated
Mon 04:46:00 PM 42.1143 -87.9015 143° Southeast  Level Estimated
Mon 04:47:00 PM 42.1143 -87.9015 143° Southeast  Level Estimated
Mon 04:48:00 PM 42.1143 -87.9015 143° Southeast  Level Estimated

Login

Don't have an account? Register now (free) for customized features, flight alerts, and more!